sensor_id;sensor_type;location;lat;lon;timestamp;temperature;humidity
5779;DHT22;2916;49.798;10.022;2023-04-24T00:02:05;11.30;99.90
5779;DHT22;2916;49.798;10.022;2023-04-24T00:04:36;11.30;99.90
5779;DHT22;2916;49.798;10.022;2023-04-24T00:07:07;11.30;99.90
5779;DHT22;2916;49.798;10.022;2023-04-24T00:09:34;11.30;99.90
5779;DHT22;2916;49.798;10.022;2023-04-24T00:12:02;11.30;99.90
5779;DHT22;2916;49.798;10.022;2023-04-24T00:14:30;11.30;99.90
5779;DHT22;2916;49.798;10.022;2023-04-24T00:16:57;11.40;99.90
5779;DHT22;2916;49.798;10.022;2023-04-24T00:19:24;11.30;99.90
5779;DHT22;2916;49.798;10.022;2023-04-24T00:21:52;11.20;99.90
5779;DHT22;2916;49.798;10.022;2023-04-24T00:24:21;11.20;99.90
5779;DHT22;2916;49.798;10.022;2023-04-24T00:26:48;11.10;99.90
5779;DHT22;2916;49.798;10.022;2023-04-24T00:29:15;11.20;99.90
5779;DHT22;2916;49.798;10.022;2023-04-24T00:31:42;11.20;99.90
5779;DHT22;2916;49.798;10.022;2023-04-24T00:34:10;11.20;99.90
5779;DHT22;2916;49.798;10.022;2023-04-24T00:36:38;11.20;99.90
5779;DHT22;2916;49.798;10.022;2023-04-24T00:39:05;11.20;99.90
5779;DHT22;2916;49.798;10.022;2023-04-24T00:41:36;11.20;99.90
5779;DHT22;2916;49.798;10.022;2023-04-24T00:44:04;11.30;99.90
5779;DHT22;2916;49.798;10.022;2023-04-24T00:46:31;11.20;99.90
5779;DHT22;2916;49.798;10.022;2023-04-24T00:48:59;11.20;99.90
5779;DHT22;2916;49.798;10.022;2023-04-24T00:51:26;11.10;99.90
5779;DHT22;2916;49.798;10.022;2023-04-24T00:53:54;11.20;99.90
5779;DHT22;2916;49.798;10.022;2023-04-24T00:56:21;11.20;99.90
5779;DHT22;2916;49.798;10.022;2023-04-24T00:58:50;11.20;99.90
5779;DHT22;2916;49.798;10.022;2023-04-24T01:01:19;11.10;99.90
5779;DHT22;2916;49.798;10.022;2023-04-24T01:03:49;11.10;99.90
5779;DHT22;2916;49.798;10.022;2023-04-24T01:06:18;11.10;99.90
5779;DHT22;2916;49.798;10.022;2023-04-24T01:08:47;11.10;99.90
5779;DHT22;2916;49.798;10.022;2023-04-24T01:11:15;11.10;99.90
5779;DHT22;2916;49.798;10.022;2023-04-24T01:13:42;11.10;99.90
5779;DHT22;2916;49.798;10.022;2023-04-24T01:16:12;11.10;99.90
5779;DHT22;2916;49.798;10.022;2023-04-24T01:18:39;11.10;99.90
5779;DHT22;2916;49.798;10.022;2023-04-24T01:21:08;11.10;99.90
5779;DHT22;2916;49.798;10.022;2023-04-24T01:23:39;11.00;99.90
5779;DHT22;2916;49.798;10.022;2023-04-24T01:26:06;11.00;99.90
5779;DHT22;2916;49.798;10.022;2023-04-24T01:28:34;11.00;99.90
5779;DHT22;2916;49.798;10.022;2023-04-24T01:31:01;11.00;99.90
5779;DHT22;2916;49.798;10.022;2023-04-24T01:33:28;11.00;99.90
5779;DHT22;2916;49.798;10.022;2023-04-24T01:35:56;11.00;99.90
5779;DHT22;2916;49.798;10.022;2023-04-24T01:38:24;11.10;99.90
5779;DHT22;2916;49.798;10.022;2023-04-24T01:40:53;11.00;99.90
5779;DHT22;2916;49.798;10.022;2023-04-24T01:43:20;11.10;99.90
5779;DHT22;2916;49.798;10.022;2023-04-24T01:45:48;11.10;99.90
5779;DHT22;2916;49.798;10.022;2023-04-24T01:48:15;11.10;99.90
5779;DHT22;2916;49.798;10.022;2023-04-24T01:50:42;11.10;99.90
5779;DHT22;2916;49.798;10.022;2023-04-24T01:53:10;11.10;99.90
5779;DHT22;2916;49.798;10.022;2023-04-24T01:55:37;11.10;99.90
5779;DHT22;2916;49.798;10.022;2023-04-24T01:58:05;11.10;99.90
5779;DHT22;2916;49.798;10.022;2023-04-24T02:00:33;11.20;99.90
5779;DHT22;2916;49.798;10.022;2023-04-24T02:03:00;11.20;99.90
5779;DHT22;2916;49.798;10.022;2023-04-24T02:05:28;11.10;99.90
5779;DHT22;2916;49.798;10.022;2023-04-24T02:07:55;11.20;99.90
5779;DHT22;2916;49.798;10.022;2023-04-24T02:10:22;11.20;99.90
5779;DHT22;2916;49.798;10.022;2023-04-24T02:12:50;11.20;99.90
5779;DHT22;2916;49.798;10.022;2023-04-24T02:15:19;11.10;99.90
5779;DHT22;2916;49.798;10.022;2023-04-24T02:17:46;11.10;99.90
5779;DHT22;2916;49.798;10.022;2023-04-24T02:20:13;11.20;99.90
5779;DHT22;2916;49.798;10.022;2023-04-24T02:22:40;11.10;99.90
5779;DHT22;2916;49.798;10.022;2023-04-24T02:25:08;11.00;99.90
5779;DHT22;2916;49.798;10.022;2023-04-24T02:27:35;11.00;99.90
5779;DHT22;2916;49.798;10.022;2023-04-24T02:30:03;11.10;99.90
5779;DHT22;2916;49.798;10.022;2023-04-24T02:32:34;11.10;99.90
5779;DHT22;2916;49.798;10.022;2023-04-24T02:35:01;11.00;99.90
5779;DHT22;2916;49.798;10.022;2023-04-24T02:37:28;11.00;99.90
5779;DHT22;2916;49.798;10.022;2023-04-24T02:39:56;11.00;99.90
5779;DHT22;2916;49.798;10.022;2023-04-24T02:42:23;11.00;99.90
5779;DHT22;2916;49.798;10.022;2023-04-24T02:44:50;11.00;99.90
5779;DHT22;2916;49.798;10.022;2023-04-24T02:47:17;11.00;99.90
5779;DHT22;2916;49.798;10.022;2023-04-24T02:49:46;10.90;99.90
5779;DHT22;2916;49.798;10.022;2023-04-24T02:52:13;10.90;99.90
5779;DHT22;2916;49.798;10.022;2023-04-24T02:54:40;10.90;99.90
5779;DHT22;2916;49.798;10.022;2023-04-24T02:57:08;10.90;99.90
5779;DHT22;2916;49.798;10.022;2023-04-24T02:59:35;10.90;99.90
5779;DHT22;2916;49.798;10.022;2023-04-24T03:02:02;10.90;99.90
5779;DHT22;2916;49.798;10.022;2023-04-24T03:04:30;10.80;99.90
5779;DHT22;2916;49.798;10.022;2023-04-24T03:06:58;10.80;99.90
5779;DHT22;2916;49.798;10.022;2023-04-24T03:09:26;10.80;99.90
5779;DHT22;2916;49.798;10.022;2023-04-24T03:11:53;10.80;99.90
5779;DHT22;2916;49.798;10.022;2023-04-24T03:14:21;10.80;99.90
5779;DHT22;2916;49.798;10.022;2023-04-24T03:16:48;10.80;99.90
5779;DHT22;2916;49.798;10.022;2023-04-24T03:19:15;10.80;99.90
5779;DHT22;2916;49.798;10.022;2023-04-24T03:21:42;10.70;99.90
5779;DHT22;2916;49.798;10.022;2023-04-24T03:24:11;10.70;99.90
5779;DHT22;2916;49.798;10.022;2023-04-24T03:26:38;10.60;99.90
5779;DHT22;2916;49.798;10.022;2023-04-24T03:29:05;10.60;99.90
5779;DHT22;2916;49.798;10.022;2023-04-24T03:31:32;10.60;99.90
5779;DHT22;2916;49.798;10.022;2023-04-24T03:34:00;10.60;99.90
5779;DHT22;2916;49.798;10.022;2023-04-24T03:36:27;10.60;99.90
5779;DHT22;2916;49.798;10.022;2023-04-24T03:38:54;10.60;99.90
5779;DHT22;2916;49.798;10.022;2023-04-24T03:41:23;10.60;99.90
5779;DHT22;2916;49.798;10.022;2023-04-24T03:43:50;10.50;99.90
5779;DHT22;2916;49.798;10.022;2023-04-24T03:46:17;10.60;99.90
5779;DHT22;2916;49.798;10.022;2023-04-24T03:48:44;10.60;99.90
5779;DHT22;2916;49.798;10.022;2023-04-24T03:51:11;10.60;99.90
5779;DHT22;2916;49.798;10.022;2023-04-24T03:53:39;10.60;99.90
5779;DHT22;2916;49.798;10.022;2023-04-24T03:56:06;10.60;99.90
5779;DHT22;2916;49.798;10.022;2023-04-24T03:58:35;10.60;99.90
5779;DHT22;2916;49.798;10.022;2023-04-24T04:01:02;10.60;99.90
5779;DHT22;2916;49.798;10.022;2023-04-24T04:03:29;10.50;99.90
5779;DHT22;2916;49.798;10.022;2023-04-24T04:05:56;10.50;99.90
5779;DHT22;2916;49.798;10.022;2023-04-24T04:08:23;10.50;99.90
5779;DHT22;2916;49.798;10.022;2023-04-24T04:10:51;10.50;99.90
5779;DHT22;2916;49.798;10.022;2023-04-24T04:13:18;10.50;99.90
5779;DHT22;2916;49.798;10.022;2023-04-24T04:15:46;10.60;99.90
5779;DHT22;2916;49.798;10.022;2023-04-24T04:18:14;10.50;99.90
5779;DHT22;2916;49.798;10.022;2023-04-24T04:20:41;10.50;99.90
5779;DHT22;2916;49.798;10.022;2023-04-24T04:23:08;10.50;99.90
5779;DHT22;2916;49.798;10.022;2023-04-24T04:25:35;10.50;99.90
5779;DHT22;2916;49.798;10.022;2023-04-24T04:28:03;10.50;99.90
5779;DHT22;2916;49.798;10.022;2023-04-24T04:30:31;10.60;99.90
5779;DHT22;2916;49.798;10.022;2023-04-24T04:33:00;10.50;99.90
5779;DHT22;2916;49.798;10.022;2023-04-24T04:35:28;10.50;99.90
5779;DHT22;2916;49.798;10.022;2023-04-24T04:37:55;10.50;99.90
5779;DHT22;2916;49.798;10.022;2023-04-24T04:40:24;10.40;99.90
5779;DHT22;2916;49.798;10.022;2023-04-24T04:42:52;10.40;99.90
5779;DHT22;2916;49.798;10.022;2023-04-24T04:45:19;10.40;99.90
5779;DHT22;2916;49.798;10.022;2023-04-24T04:47:47;10.40;99.90
5779;DHT22;2916;49.798;10.022;2023-04-24T04:50:16;10.40;99.90
5779;DHT22;2916;49.798;10.022;2023-04-24T04:52:45;10.40;99.90
5779;DHT22;2916;49.798;10.022;2023-04-24T04:55:12;10.40;99.90
5779;DHT22;2916;49.798;10.022;2023-04-24T04:57:40;10.40;99.90
5779;DHT22;2916;49.798;10.022;2023-04-24T05:00:08;10.40;99.90
5779;DHT22;2916;49.798;10.022;2023-04-24T05:02:37;10.40;99.90
5779;DHT22;2916;49.798;10.022;2023-04-24T05:05:05;10.40;99.90
5779;DHT22;2916;49.798;10.022;2023-04-24T05:07:34;10.30;99.90
5779;DHT22;2916;49.798;10.022;2023-04-24T05:10:02;10.30;99.90
5779;DHT22;2916;49.798;10.022;2023-04-24T05:12:29;10.30;99.90
5779;DHT22;2916;49.798;10.022;2023-04-24T05:14:56;10.40;99.90
5779;DHT22;2916;49.798;10.022;2023-04-24T05:17:24;10.30;99.90
5779;DHT22;2916;49.798;10.022;2023-04-24T05:19:51;10.40;99.90
5779;DHT22;2916;49.798;10.022;2023-04-24T05:22:18;10.40;99.90
5779;DHT22;2916;49.798;10.022;2023-04-24T05:24:48;10.30;99.90
5779;DHT22;2916;49.798;10.022;2023-04-24T05:27:15;10.30;99.90
5779;DHT22;2916;49.798;10.022;2023-04-24T05:29:42;10.30;99.90
5779;DHT22;2916;49.798;10.022;2023-04-24T05:32:10;10.30;99.90
5779;DHT22;2916;49.798;10.022;2023-04-24T05:34:37;10.30;99.90
5779;DHT22;2916;49.798;10.022;2023-04-24T05:37:05;10.30;99.90
5779;DHT22;2916;49.798;10.022;2023-04-24T05:39:35;10.30;99.90
5779;DHT22;2916;49.798;10.022;2023-04-24T05:42:05;10.30;99.90
5779;DHT22;2916;49.798;10.022;2023-04-24T05:44:32;10.20;99.90
5779;DHT22;2916;49.798;10.022;2023-04-24T05:46:59;10.20;99.90
5779;DHT22;2916;49.798;10.022;2023-04-24T05:49:27;10.30;99.90
5779;DHT22;2916;49.798;10.022;2023-04-24T05:51:54;10.40;99.90
5779;DHT22;2916;49.798;10.022;2023-04-24T05:54:21;10.50;99.90
5779;DHT22;2916;49.798;10.022;2023-04-24T05:56:49;10.50;99.90
5779;DHT22;2916;49.798;10.022;2023-04-24T05:59:18;10.50;99.90
5779;DHT22;2916;49.798;10.022;2023-04-24T06:01:45;10.50;99.90
5779;DHT22;2916;49.798;10.022;2023-04-24T06:04:12;10.60;99.90
5779;DHT22;2916;49.798;10.022;2023-04-24T06:06:40;10.60;99.90
5779;DHT22;2916;49.798;10.022;2023-04-24T06:09:07;10.90;99.90
5779;DHT22;2916;49.798;10.022;2023-04-24T06:11:34;11.00;99.90
5779;DHT22;2916;49.798;10.022;2023-04-24T06:14:01;11.30;99.90
5779;DHT22;2916;49.798;10.022;2023-04-24T06:16:30;11.80;99.90
5779;DHT22;2916;49.798;10.022;2023-04-24T06:18:58;12.50;99.90
5779;DHT22;2916;49.798;10.022;2023-04-24T06:21:25;12.50;99.90
5779;DHT22;2916;49.798;10.022;2023-04-24T06:23:53;12.40;99.90
5779;DHT22;2916;49.798;10.022;2023-04-24T06:26:21;13.30;99.90
5779;DHT22;2916;49.798;10.022;2023-04-24T06:28:50;13.80;99.90
5779;DHT22;2916;49.798;10.022;2023-04-24T06:31:19;13.90;99.90
5779;DHT22;2916;49.798;10.022;2023-04-24T06:33:48;14.10;99.90
5779;DHT22;2916;49.798;10.022;2023-04-24T06:36:15;14.20;99.90
5779;DHT22;2916;49.798;10.022;2023-04-24T06:38:43;14.30;99.90
5779;DHT22;2916;49.798;10.022;2023-04-24T06:41:10;15.30;99.20
5779;DHT22;2916;49.798;10.022;2023-04-24T06:43:38;14.60;88.50
5779;DHT22;2916;49.798;10.022;2023-04-24T06:46:05;14.80;74.50
5779;DHT22;2916;49.798;10.022;2023-04-24T06:48:32;15.30;73.10
5779;DHT22;2916;49.798;10.022;2023-04-24T06:51:01;15.30;46.10
5779;DHT22;2916;49.798;10.022;2023-04-24T06:53:28;15.90;50.90
5779;DHT22;2916;49.798;10.022;2023-04-24T06:55:55;16.30;23.30
5779;DHT22;2916;49.798;10.022;2023-04-24T06:58:24;16.40;33.00
5779;DHT22;2916;49.798;10.022;2023-04-24T07:00:52;16.00;26.60
5779;DHT22;2916;49.798;10.022;2023-04-24T07:03:19;16.00;16.30
5779;DHT22;2916;49.798;10.022;2023-04-24T07:05:46;15.70;28.40
5779;DHT22;2916;49.798;10.022;2023-04-24T07:08:15;15.70;7.60
5779;DHT22;2916;49.798;10.022;2023-04-24T07:10:43;15.70;10.30
5779;DHT22;2916;49.798;10.022;2023-04-24T07:13:11;16.40;17.70
5779;DHT22;2916;49.798;10.022;2023-04-24T07:15:38;16.60;1.00
5779;DHT22;2916;49.798;10.022;2023-04-24T07:18:06;16.00;1.00
5779;DHT22;2916;49.798;10.022;2023-04-24T07:20:34;15.90;1.00
5779;DHT22;2916;49.798;10.022;2023-04-24T07:23:01;16.30;1.00
5779;DHT22;2916;49.798;10.022;2023-04-24T07:25:30;16.80;1.00
5779;DHT22;2916;49.798;10.022;2023-04-24T07:27:58;16.30;1.00
5779;DHT22;2916;49.798;10.022;2023-04-24T07:30:25;17.10;1.00
5779;DHT22;2916;49.798;10.022;2023-04-24T07:32:54;16.50;1.00
5779;DHT22;2916;49.798;10.022;2023-04-24T07:35:22;16.00;1.00
5779;DHT22;2916;49.798;10.022;2023-04-24T07:37:51;15.00;1.00
5779;DHT22;2916;49.798;10.022;2023-04-24T07:40:18;14.80;1.70
5779;DHT22;2916;49.798;10.022;2023-04-24T07:42:47;14.50;11.50
5779;DHT22;2916;49.798;10.022;2023-04-24T07:45:15;14.60;14.80
5779;DHT22;2916;49.798;10.022;2023-04-24T07:47:42;14.70;8.90
5779;DHT22;2916;49.798;10.022;2023-04-24T07:50:11;14.50;12.20
5779;DHT22;2916;49.798;10.022;2023-04-24T07:52:39;14.20;3.80
5779;DHT22;2916;49.798;10.022;2023-04-24T07:55:06;14.30;8.70
5779;DHT22;2916;49.798;10.022;2023-04-24T07:57:34;14.40;9.80
5779;DHT22;2916;49.798;10.022;2023-04-24T08:00:03;14.50;15.40
5779;DHT22;2916;49.798;10.022;2023-04-24T08:02:32;14.40;7.60
5779;DHT22;2916;49.798;10.022;2023-04-24T08:04:59;14.00;11.70
5779;DHT22;2916;49.798;10.022;2023-04-24T08:07:28;13.60;11.30
5779;DHT22;2916;49.798;10.022;2023-04-24T08:09:56;13.60;24.50
5779;DHT22;2916;49.798;10.022;2023-04-24T08:12:23;13.70;35.40
5779;DHT22;2916;49.798;10.022;2023-04-24T08:14:50;13.50;23.00
5779;DHT22;2916;49.798;10.022;2023-04-24T08:17:18;13.50;28.40
5779;DHT22;2916;49.798;10.022;2023-04-24T08:19:46;13.60;23.10
5779;DHT22;2916;49.798;10.022;2023-04-24T08:22:14;13.50;14.90
5779;DHT22;2916;49.798;10.022;2023-04-24T08:24:42;13.40;13.30
5779;DHT22;2916;49.798;10.022;2023-04-24T08:27:09;13.30;9.40
5779;DHT22;2916;49.798;10.022;2023-04-24T08:29:37;13.20;19.20
5779;DHT22;2916;49.798;10.022;2023-04-24T08:32:04;13.30;20.50
5779;DHT22;2916;49.798;10.022;2023-04-24T08:34:33;13.40;22.20
5779;DHT22;2916;49.798;10.022;2023-04-24T08:37:00;13.40;20.80
5779;DHT22;2916;49.798;10.022;2023-04-24T08:39:27;13.30;11.00
5779;DHT22;2916;49.798;10.022;2023-04-24T08:41:55;13.40;12.70
5779;DHT22;2916;49.798;10.022;2023-04-24T08:44:22;13.30;23.70
5779;DHT22;2916;49.798;10.022;2023-04-24T08:46:50;13.00;28.40
5779;DHT22;2916;49.798;10.022;2023-04-24T08:49:20;13.10;56.70
5779;DHT22;2916;49.798;10.022;2023-04-24T08:51:49;13.10;45.70
5779;DHT22;2916;49.798;10.022;2023-04-24T08:54:19;12.80;41.40
5779;DHT22;2916;49.798;10.022;2023-04-24T08:56:48;12.70;48.00
5779;DHT22;2916;49.798;10.022;2023-04-24T08:59:16;12.60;58.90
5779;DHT22;2916;49.798;10.022;2023-04-24T09:01:45;12.70;65.10
5779;DHT22;2916;49.798;10.022;2023-04-24T09:04:15;12.80;75.90
5779;DHT22;2916;49.798;10.022;2023-04-24T09:06:45;12.50;52.40
5779;DHT22;2916;49.798;10.022;2023-04-24T09:09:15;12.50;40.90
5779;DHT22;2916;49.798;10.022;2023-04-24T09:11:44;12.50;50.40
5779;DHT22;2916;49.798;10.022;2023-04-24T09:14:13;12.30;45.50
5779;DHT22;2916;49.798;10.022;2023-04-24T09:16:40;12.60;38.20
5779;DHT22;2916;49.798;10.022;2023-04-24T09:19:08;13.00;30.40
5779;DHT22;2916;49.798;10.022;2023-04-24T09:21:35;13.70;43.50
5779;DHT22;2916;49.798;10.022;2023-04-24T09:24:05;13.90;1.00
5779;DHT22;2916;49.798;10.022;2023-04-24T09:26:36;13.90;10.50
5779;DHT22;2916;49.798;10.022;2023-04-24T09:29:04;13.90;6.90
5779;DHT22;2916;49.798;10.022;2023-04-24T09:31:31;13.90;6.60
5779;DHT22;2916;49.798;10.022;2023-04-24T09:33:59;14.30;5.40
5779;DHT22;2916;49.798;10.022;2023-04-24T09:36:29;14.90;16.60
5779;DHT22;2916;49.798;10.022;2023-04-24T09:39:00;14.80;1.00
5779;DHT22;2916;49.798;10.022;2023-04-24T09:41:31;14.90;1.00
5779;DHT22;2916;49.798;10.022;2023-04-24T09:44:11;15.30;1.00
5779;DHT22;2916;49.798;10.022;2023-04-24T09:46:39;15.60;1.00
5779;DHT22;2916;49.798;10.022;2023-04-24T09:49:12;15.90;1.00
5779;DHT22;2916;49.798;10.022;2023-04-24T09:51:42;16.30;1.00
5779;DHT22;2916;49.798;10.022;2023-04-24T09:54:14;16.50;1.00
5779;DHT22;2916;49.798;10.022;2023-04-24T09:56:43;15.90;1.00
5779;DHT22;2916;49.798;10.022;2023-04-24T09:59:14;15.70;1.00
5779;DHT22;2916;49.798;10.022;2023-04-24T10:01:42;15.40;1.00
5779;DHT22;2916;49.798;10.022;2023-04-24T10:04:16;15.40;1.00
5779;DHT22;2916;49.798;10.022;2023-04-24T10:06:45;15.90;1.00
5779;DHT22;2916;49.798;10.022;2023-04-24T10:09:14;16.10;1.00
5779;DHT22;2916;49.798;10.022;2023-04-24T10:11:43;16.00;1.00
5779;DHT22;2916;49.798;10.022;2023-04-24T10:14:15;15.90;1.00
5779;DHT22;2916;49.798;10.022;2023-04-24T10:16:43;15.50;1.00
5779;DHT22;2916;49.798;10.022;2023-04-24T10:19:12;15.20;1.00
5779;DHT22;2916;49.798;10.022;2023-04-24T10:21:42;15.20;1.00
5779;DHT22;2916;49.798;10.022;2023-04-24T10:24:12;15.10;1.00
5779;DHT22;2916;49.798;10.022;2023-04-24T10:26:41;15.00;1.00
5779;DHT22;2916;49.798;10.022;2023-04-24T10:29:14;15.30;1.00
5779;DHT22;2916;49.798;10.022;2023-04-24T10:31:44;15.60;1.00
5779;DHT22;2916;49.798;10.022;2023-04-24T10:34:12;15.30;1.00
5779;DHT22;2916;49.798;10.022;2023-04-24T10:36:45;15.40;1.00
5779;DHT22;2916;49.798;10.022;2023-04-24T10:39:18;15.70;1.00
5779;DHT22;2916;49.798;10.022;2023-04-24T10:41:49;15.50;1.00
5779;DHT22;2916;49.798;10.022;2023-04-24T10:44:18;15.20;1.00
5779;DHT22;2916;49.798;10.022;2023-04-24T10:46:54;14.80;1.00
5779;DHT22;2916;49.798;10.022;2023-04-24T10:49:28;14.70;1.00
5779;DHT22;2916;49.798;10.022;2023-04-24T10:52:00;14.30;1.00
5779;DHT22;2916;49.798;10.022;2023-04-24T10:54:34;14.30;1.00
5779;DHT22;2916;49.798;10.022;2023-04-24T10:57:27;14.20;1.00
5779;DHT22;2916;49.798;10.022;2023-04-24T11:00:19;14.20;1.00
5779;DHT22;2916;49.798;10.022;2023-04-24T11:02:48;14.10;1.00
5779;DHT22;2916;49.798;10.022;2023-04-24T11:05:19;14.00;1.00
5779;DHT22;2916;49.798;10.022;2023-04-24T11:08:12;13.90;1.00
5779;DHT22;2916;49.798;10.022;2023-04-24T11:10:44;14.00;1.00
5779;DHT22;2916;49.798;10.022;2023-04-24T11:13:14;13.70;1.00
5779;DHT22;2916;49.798;10.022;2023-04-24T11:15:44;14.00;1.00
5779;DHT22;2916;49.798;10.022;2023-04-24T11:18:14;14.50;1.00
5779;DHT22;2916;49.798;10.022;2023-04-24T11:20:42;14.80;1.00
5779;DHT22;2916;49.798;10.022;2023-04-24T11:23:12;14.60;1.00
5779;DHT22;2916;49.798;10.022;2023-04-24T11:25:41;14.50;1.00
5779;DHT22;2916;49.798;10.022;2023-04-24T11:28:14;14.30;1.00
5779;DHT22;2916;49.798;10.022;2023-04-24T11:30:44;13.90;1.00
5779;DHT22;2916;49.798;10.022;2023-04-24T11:33:11;13.80;1.00
5779;DHT22;2916;49.798;10.022;2023-04-24T11:35:47;13.60;1.00
5779;DHT22;2916;49.798;10.022;2023-04-24T11:38:14;13.80;1.00
5779;DHT22;2916;49.798;10.022;2023-04-24T11:40:44;13.80;1.00
5779;DHT22;2916;49.798;10.022;2023-04-24T11:43:14;13.70;1.00
5779;DHT22;2916;49.798;10.022;2023-04-24T11:45:49;13.60;1.00
5779;DHT22;2916;49.798;10.022;2023-04-24T11:48:19;13.50;1.00
5779;DHT22;2916;49.798;10.022;2023-04-24T11:50:46;13.10;1.00
5779;DHT22;2916;49.798;10.022;2023-04-24T11:53:14;13.40;1.00
5779;DHT22;2916;49.798;10.022;2023-04-24T11:55:41;13.70;1.00
5779;DHT22;2916;49.798;10.022;2023-04-24T11:58:08;13.60;1.00
5779;DHT22;2916;49.798;10.022;2023-04-24T12:00:35;13.80;1.00
5779;DHT22;2916;49.798;10.022;2023-04-24T12:03:06;13.80;1.00
5779;DHT22;2916;49.798;10.022;2023-04-24T12:05:34;13.90;1.00
5779;DHT22;2916;49.798;10.022;2023-04-24T12:08:02;13.60;1.00
5779;DHT22;2916;49.798;10.022;2023-04-24T12:10:32;13.10;1.00
5779;DHT22;2916;49.798;10.022;2023-04-24T12:13:00;13.40;1.00
5779;DHT22;2916;49.798;10.022;2023-04-24T12:15:27;13.50;1.00
5779;DHT22;2916;49.798;10.022;2023-04-24T12:17:55;14.00;14.10
5779;DHT22;2916;49.798;10.022;2023-04-24T12:20:28;14.30;1.00
5779;DHT22;2916;49.798;10.022;2023-04-24T12:22:58;14.50;1.00
5779;DHT22;2916;49.798;10.022;2023-04-24T12:25:29;14.50;1.00
5779;DHT22;2916;49.798;10.022;2023-04-24T12:28:09;14.70;1.00
5779;DHT22;2916;49.798;10.022;2023-04-24T12:30:40;14.90;1.00
5779;DHT22;2916;49.798;10.022;2023-04-24T12:33:10;14.80;1.00
5779;DHT22;2916;49.798;10.022;2023-04-24T12:35:40;14.90;1.00
5779;DHT22;2916;49.798;10.022;2023-04-24T12:38:08;14.60;1.00
5779;DHT22;2916;49.798;10.022;2023-04-24T12:40:38;14.60;1.00
5779;DHT22;2916;49.798;10.022;2023-04-24T12:43:13;14.80;1.00
5779;DHT22;2916;49.798;10.022;2023-04-24T12:45:42;15.00;1.00
5779;DHT22;2916;49.798;10.022;2023-04-24T12:48:10;15.10;1.00
5779;DHT22;2916;49.798;10.022;2023-04-24T12:50:39;15.00;1.00
5779;DHT22;2916;49.798;10.022;2023-04-24T12:53:08;15.10;1.00
5779;DHT22;2916;49.798;10.022;2023-04-24T12:55:36;15.40;1.00
5779;DHT22;2916;49.798;10.022;2023-04-24T12:58:03;14.80;1.00
5779;DHT22;2916;49.798;10.022;2023-04-24T13:00:31;14.60;1.00
5779;DHT22;2916;49.798;10.022;2023-04-24T13:02:58;14.50;1.00
5779;DHT22;2916;49.798;10.022;2023-04-24T13:05:25;14.50;1.00
5779;DHT22;2916;49.798;10.022;2023-04-24T13:07:53;14.60;1.00
5779;DHT22;2916;49.798;10.022;2023-04-24T13:10:20;14.40;1.00
5779;DHT22;2916;49.798;10.022;2023-04-24T13:12:48;14.30;1.00
5779;DHT22;2916;49.798;10.022;2023-04-24T13:15:15;14.10;1.00
5779;DHT22;2916;49.798;10.022;2023-04-24T13:17:42;14.00;1.00
5779;DHT22;2916;49.798;10.022;2023-04-24T13:20:10;13.80;1.00
5779;DHT22;2916;49.798;10.022;2023-04-24T13:22:37;13.60;1.00
5779;DHT22;2916;49.798;10.022;2023-04-24T13:25:06;13.50;1.00
5779;DHT22;2916;49.798;10.022;2023-04-24T13:27:34;13.60;1.00
5779;DHT22;2916;49.798;10.022;2023-04-24T13:30:01;13.60;1.00
5779;DHT22;2916;49.798;10.022;2023-04-24T13:32:30;13.40;1.00
5779;DHT22;2916;49.798;10.022;2023-04-24T13:34:57;13.60;1.00
5779;DHT22;2916;49.798;10.022;2023-04-24T13:37:24;13.80;1.00
5779;DHT22;2916;49.798;10.022;2023-04-24T13:39:52;13.80;1.00
5779;DHT22;2916;49.798;10.022;2023-04-24T13:42:20;14.00;1.00
5779;DHT22;2916;49.798;10.022;2023-04-24T13:44:47;14.10;1.00
5779;DHT22;2916;49.798;10.022;2023-04-24T13:47:14;14.30;1.00
5779;DHT22;2916;49.798;10.022;2023-04-24T13:49:42;14.20;1.00
5779;DHT22;2916;49.798;10.022;2023-04-24T13:52:09;14.30;1.00
5779;DHT22;2916;49.798;10.022;2023-04-24T13:54:36;14.40;1.00
5779;DHT22;2916;49.798;10.022;2023-04-24T13:57:04;14.10;1.00
5779;DHT22;2916;49.798;10.022;2023-04-24T13:59:32;14.30;1.00
5779;DHT22;2916;49.798;10.022;2023-04-24T14:01:59;14.20;1.00
5779;DHT22;2916;49.798;10.022;2023-04-24T14:04:26;14.10;1.00
5779;DHT22;2916;49.798;10.022;2023-04-24T14:06:54;14.00;1.00
5779;DHT22;2916;49.798;10.022;2023-04-24T14:09:21;13.90;1.00
5779;DHT22;2916;49.798;10.022;2023-04-24T14:11:48;13.70;1.00
5779;DHT22;2916;49.798;10.022;2023-04-24T14:14:15;13.60;1.00
5779;DHT22;2916;49.798;10.022;2023-04-24T14:16:44;13.40;1.00
5779;DHT22;2916;49.798;10.022;2023-04-24T14:19:11;13.40;1.00
5779;DHT22;2916;49.798;10.022;2023-04-24T14:21:38;13.30;1.00
5779;DHT22;2916;49.798;10.022;2023-04-24T14:24:05;13.20;1.00
5779;DHT22;2916;49.798;10.022;2023-04-24T14:26:32;13.20;4.60
5779;DHT22;2916;49.798;10.022;2023-04-24T14:29:00;13.10;21.20
5779;DHT22;2916;49.798;10.022;2023-04-24T14:31:27;12.90;17.70
5779;DHT22;2916;49.798;10.022;2023-04-24T14:33:56;12.80;16.30
5779;DHT22;2916;49.798;10.022;2023-04-24T14:36:23;13.10;24.60
5779;DHT22;2916;49.798;10.022;2023-04-24T14:38:50;13.20;12.50
5779;DHT22;2916;49.798;10.022;2023-04-24T14:41:17;13.40;5.70
5779;DHT22;2916;49.798;10.022;2023-04-24T14:43:44;13.50;1.00
5779;DHT22;2916;49.798;10.022;2023-04-24T14:46:11;13.60;1.00
5779;DHT22;2916;49.798;10.022;2023-04-24T14:48:39;13.80;1.00
5779;DHT22;2916;49.798;10.022;2023-04-24T14:51:08;13.90;1.00
5779;DHT22;2916;49.798;10.022;2023-04-24T14:53:35;13.80;1.00
5779;DHT22;2916;49.798;10.022;2023-04-24T14:56:02;13.90;1.00
5779;DHT22;2916;49.798;10.022;2023-04-24T14:58:29;14.00;1.00
5779;DHT22;2916;49.798;10.022;2023-04-24T15:00:56;13.90;1.00
5779;DHT22;2916;49.798;10.022;2023-04-24T15:03:24;13.70;1.00
5779;DHT22;2916;49.798;10.022;2023-04-24T15:05:52;13.40;1.00
5779;DHT22;2916;49.798;10.022;2023-04-24T15:08:20;13.50;1.00
5779;DHT22;2916;49.798;10.022;2023-04-24T15:10:48;13.30;1.00
5779;DHT22;2916;49.798;10.022;2023-04-24T15:13:15;13.20;1.00
5779;DHT22;2916;49.798;10.022;2023-04-24T15:15:42;13.50;1.00
5779;DHT22;2916;49.798;10.022;2023-04-24T15:18:12;13.60;1.00
5779;DHT22;2916;49.798;10.022;2023-04-24T15:20:40;13.90;1.00
5779;DHT22;2916;49.798;10.022;2023-04-24T15:23:08;13.90;1.00
5779;DHT22;2916;49.798;10.022;2023-04-24T15:25:37;14.00;1.00
5779;DHT22;2916;49.798;10.022;2023-04-24T15:28:05;14.00;1.00
5779;DHT22;2916;49.798;10.022;2023-04-24T15:30:32;14.00;1.00
5779;DHT22;2916;49.798;10.022;2023-04-24T15:33:00;13.80;1.00
5779;DHT22;2916;49.798;10.022;2023-04-24T15:35:27;13.70;1.00
5779;DHT22;2916;49.798;10.022;2023-04-24T15:37:55;13.70;1.00
5779;DHT22;2916;49.798;10.022;2023-04-24T15:40:23;13.90;1.00
5779;DHT22;2916;49.798;10.022;2023-04-24T15:42:51;13.80;1.00
5779;DHT22;2916;49.798;10.022;2023-04-24T15:45:18;13.70;1.00
5779;DHT22;2916;49.798;10.022;2023-04-24T15:47:45;13.50;1.00
5779;DHT22;2916;49.798;10.022;2023-04-24T15:50:13;13.40;1.00
5779;DHT22;2916;49.798;10.022;2023-04-24T15:52:41;13.50;1.00
5779;DHT22;2916;49.798;10.022;2023-04-24T15:55:09;13.60;1.00
5779;DHT22;2916;49.798;10.022;2023-04-24T15:57:37;13.60;1.00
5779;DHT22;2916;49.798;10.022;2023-04-24T16:00:08;13.50;1.00